CA-0139 weather

CLOSED Fredericton (Forestry Centre) Heliport
New Brunswick, Canada

Public forecast

Using degrees Celsius for public forecast. Weather courtesy of forecast.io.

METAR (pilot weather report)

Closest report is Fredericton Airport, 6.7 nm (12.3 km) SE. Retrieved 2019/08/25 14:00 UTC (34 minutes ago):

CYFC 251400Z AUTO 33003KT 260V030 9SM CLR 17/11 A3043 RMK SLP305

TAF (pilot weather forecast)

Closest forecast is Fredericton Airport, 6.7 nm (12.3 km) SE. Retrieved 2019/08/25 12:39 UTC (2 hours ago):

TAF TAF CYFC 251138Z 2512/2524 VRB03KT P6SM SKC BECMG 2513/2515 03005KT RMK FCST BASED ON AUTO OBS. NXT FCST BY 251800Z